sensor_id;sensor_type;location;lat;lon;timestamp;P1;durP1;ratioP1;P2;durP2;ratioP2
14603;SDS011;7388;51.078;13.740;2023-05-07T00:01:41;19.10;;;13.03;;
14603;SDS011;7388;51.078;13.740;2023-05-07T00:04:07;15.13;;;13.23;;
14603;SDS011;7388;51.078;13.740;2023-05-07T00:06:33;16.00;;;13.50;;
14603;SDS011;7388;51.078;13.740;2023-05-07T00:08:59;18.40;;;14.43;;
14603;SDS011;7388;51.078;13.740;2023-05-07T00:11:26;20.05;;;14.77;;
14603;SDS011;7388;51.078;13.740;2023-05-07T00:13:52;17.25;;;14.32;;
14603;SDS011;7388;51.078;13.740;2023-05-07T00:16:18;18.27;;;14.80;;
14603;SDS011;7388;51.078;13.740;2023-05-07T00:18:44;15.53;;;13.87;;
14603;SDS011;7388;51.078;13.740;2023-05-07T00:21:10;19.17;;;15.60;;
14603;SDS011;7388;51.078;13.740;2023-05-07T00:23:36;19.20;;;14.93;;
14603;SDS011;7388;51.078;13.740;2023-05-07T00:26:02;23.63;;;17.47;;
14603;SDS011;7388;51.078;13.740;2023-05-07T00:28:28;22.45;;;16.33;;
14603;SDS011;7388;51.078;13.740;2023-05-07T00:30:54;20.00;;;15.30;;
14603;SDS011;7388;51.078;13.740;2023-05-07T00:33:20;17.67;;;15.77;;
14603;SDS011;7388;51.078;13.740;2023-05-07T00:35:47;21.27;;;16.25;;
14603;SDS011;7388;51.078;13.740;2023-05-07T00:38:13;19.15;;;15.02;;
14603;SDS011;7388;51.078;13.740;2023-05-07T00:40:39;20.63;;;15.67;;
14603;SDS011;7388;51.078;13.740;2023-05-07T00:43:05;19.20;;;16.03;;
14603;SDS011;7388;51.078;13.740;2023-05-07T00:45:32;19.52;;;16.25;;
14603;SDS011;7388;51.078;13.740;2023-05-07T00:48:01;19.20;;;16.25;;
14603;SDS011;7388;51.078;13.740;2023-05-07T00:50:28;19.67;;;15.23;;
14603;SDS011;7388;51.078;13.740;2023-05-07T00:52:54;18.10;;;15.25;;
14603;SDS011;7388;51.078;13.740;2023-05-07T00:55:21;17.23;;;14.63;;
14603;SDS011;7388;51.078;13.740;2023-05-07T00:57:48;22.77;;;16.38;;
14603;SDS011;7388;51.078;13.740;2023-05-07T01:00:15;18.35;;;16.00;;
14603;SDS011;7388;51.078;13.740;2023-05-07T01:02:42;16.45;;;14.00;;
14603;SDS011;7388;51.078;13.740;2023-05-07T01:05:09;21.00;;;15.40;;
14603;SDS011;7388;51.078;13.740;2023-05-07T01:07:40;17.30;;;15.05;;
14603;SDS011;7388;51.078;13.740;2023-05-07T01:10:07;19.75;;;14.35;;
14603;SDS011;7388;51.078;13.740;2023-05-07T01:12:35;17.00;;;15.18;;
14603;SDS011;7388;51.078;13.740;2023-05-07T01:15:03;16.98;;;15.18;;
14603;SDS011;7388;51.078;13.740;2023-05-07T01:17:37;19.40;;;16.83;;
14603;SDS011;7388;51.078;13.740;2023-05-07T01:20:05;19.30;;;17.10;;
14603;SDS011;7388;51.078;13.740;2023-05-07T01:22:32;20.10;;;14.85;;
14603;SDS011;7388;51.078;13.740;2023-05-07T01:25:03;17.85;;;14.88;;
14603;SDS011;7388;51.078;13.740;2023-05-07T01:27:29;14.77;;;13.38;;
14603;SDS011;7388;51.078;13.740;2023-05-07T01:29:55;16.53;;;13.90;;
14603;SDS011;7388;51.078;13.740;2023-05-07T01:32:24;16.35;;;14.65;;
14603;SDS011;7388;51.078;13.740;2023-05-07T01:34:57;19.27;;;15.80;;
14603;SDS011;7388;51.078;13.740;2023-05-07T01:37:25;16.65;;;14.23;;
14603;SDS011;7388;51.078;13.740;2023-05-07T01:39:52;17.48;;;14.77;;
14603;SDS011;7388;51.078;13.740;2023-05-07T01:42:18;16.95;;;14.80;;
14603;SDS011;7388;51.078;13.740;2023-05-07T01:44:44;16.85;;;14.68;;
14603;SDS011;7388;51.078;13.740;2023-05-07T01:47:11;19.83;;;16.10;;
14603;SDS011;7388;51.078;13.740;2023-05-07T01:49:38;18.35;;;15.98;;
14603;SDS011;7388;51.078;13.740;2023-05-07T01:52:05;17.02;;;14.48;;
14603;SDS011;7388;51.078;13.740;2023-05-07T01:54:30;18.60;;;14.53;;
14603;SDS011;7388;51.078;13.740;2023-05-07T01:56:56;16.90;;;15.17;;
14603;SDS011;7388;51.078;13.740;2023-05-07T01:59:22;17.00;;;15.00;;
14603;SDS011;7388;51.078;13.740;2023-05-07T02:01:48;16.80;;;14.90;;
14603;SDS011;7388;51.078;13.740;2023-05-07T02:04:14;16.80;;;15.10;;
14603;SDS011;7388;51.078;13.740;2023-05-07T02:06:39;20.13;;;17.00;;
14603;SDS011;7388;51.078;13.740;2023-05-07T02:09:05;15.50;;;13.70;;
14603;SDS011;7388;51.078;13.740;2023-05-07T02:11:31;15.48;;;13.45;;
14603;SDS011;7388;51.078;13.740;2023-05-07T02:13:57;16.20;;;13.43;;
14603;SDS011;7388;51.078;13.740;2023-05-07T02:16:23;18.33;;;14.47;;
14603;SDS011;7388;51.078;13.740;2023-05-07T02:18:48;15.90;;;13.53;;
14603;SDS011;7388;51.078;13.740;2023-05-07T02:21:14;16.60;;;14.67;;
14603;SDS011;7388;51.078;13.740;2023-05-07T02:23:40;17.93;;;13.60;;
14603;SDS011;7388;51.078;13.740;2023-05-07T02:26:06;13.30;;;11.40;;
14603;SDS011;7388;51.078;13.740;2023-05-07T02:28:32;18.17;;;12.90;;
14603;SDS011;7388;51.078;13.740;2023-05-07T02:31:00;15.52;;;13.10;;
14603;SDS011;7388;51.078;13.740;2023-05-07T02:33:28;16.70;;;12.43;;
14603;SDS011;7388;51.078;13.740;2023-05-07T02:35:53;17.47;;;13.50;;
14603;SDS011;7388;51.078;13.740;2023-05-07T02:38:19;15.87;;;12.23;;
14603;SDS011;7388;51.078;13.740;2023-05-07T02:40:45;18.77;;;12.13;;
14603;SDS011;7388;51.078;13.740;2023-05-07T02:43:11;14.30;;;12.90;;
14603;SDS011;7388;51.078;13.740;2023-05-07T02:45:36;15.77;;;13.43;;
14603;SDS011;7388;51.078;13.740;2023-05-07T02:48:03;15.60;;;12.83;;
14603;SDS011;7388;51.078;13.740;2023-05-07T02:50:30;14.50;;;13.05;;
14603;SDS011;7388;51.078;13.740;2023-05-07T02:52:57;14.18;;;11.68;;
14603;SDS011;7388;51.078;13.740;2023-05-07T02:55:23;12.68;;;10.40;;
14603;SDS011;7388;51.078;13.740;2023-05-07T02:57:49;14.17;;;10.73;;
14603;SDS011;7388;51.078;13.740;2023-05-07T03:00:16;13.48;;;11.15;;
14603;SDS011;7388;51.078;13.740;2023-05-07T03:02:43;13.15;;;9.27;;
14603;SDS011;7388;51.078;13.740;2023-05-07T03:05:10;10.93;;;9.13;;
14603;SDS011;7388;51.078;13.740;2023-05-07T03:07:36;10.95;;;9.77;;
14603;SDS011;7388;51.078;13.740;2023-05-07T03:10:03;13.87;;;10.10;;
14603;SDS011;7388;51.078;13.740;2023-05-07T03:12:29;11.38;;;10.20;;
14603;SDS011;7388;51.078;13.740;2023-05-07T03:14:55;11.80;;;10.38;;
14603;SDS011;7388;51.078;13.740;2023-05-07T03:17:21;11.33;;;9.90;;
14603;SDS011;7388;51.078;13.740;2023-05-07T03:19:47;12.48;;;11.00;;
14603;SDS011;7388;51.078;13.740;2023-05-07T03:22:12;11.77;;;9.67;;
14603;SDS011;7388;51.078;13.740;2023-05-07T03:24:39;12.48;;;11.10;;
14603;SDS011;7388;51.078;13.740;2023-05-07T03:27:04;13.63;;;10.60;;
14603;SDS011;7388;51.078;13.740;2023-05-07T03:29:30;12.30;;;9.93;;
14603;SDS011;7388;51.078;13.740;2023-05-07T03:31:56;13.00;;;10.90;;
14603;SDS011;7388;51.078;13.740;2023-05-07T03:34:21;11.50;;;10.30;;
14603;SDS011;7388;51.078;13.740;2023-05-07T03:36:50;13.73;;;11.27;;
14603;SDS011;7388;51.078;13.740;2023-05-07T03:39:16;13.48;;;9.60;;
14603;SDS011;7388;51.078;13.740;2023-05-07T03:41:42;11.50;;;10.03;;
14603;SDS011;7388;51.078;13.740;2023-05-07T03:44:08;13.83;;;10.57;;
14603;SDS011;7388;51.078;13.740;2023-05-07T03:46:33;13.80;;;11.00;;
14603;SDS011;7388;51.078;13.740;2023-05-07T03:48:59;12.73;;;10.05;;
14603;SDS011;7388;51.078;13.740;2023-05-07T03:51:25;14.87;;;11.90;;
14603;SDS011;7388;51.078;13.740;2023-05-07T03:53:51;14.10;;;11.30;;
14603;SDS011;7388;51.078;13.740;2023-05-07T03:56:18;17.48;;;12.02;;
14603;SDS011;7388;51.078;13.740;2023-05-07T03:58:44;17.25;;;13.40;;
14603;SDS011;7388;51.078;13.740;2023-05-07T04:01:10;17.15;;;13.23;;
14603;SDS011;7388;51.078;13.740;2023-05-07T04:03:37;17.15;;;12.10;;
14603;SDS011;7388;51.078;13.740;2023-05-07T04:06:02;14.47;;;11.23;;
14603;SDS011;7388;51.078;13.740;2023-05-07T04:08:28;17.47;;;12.33;;
14603;SDS011;7388;51.078;13.740;2023-05-07T04:10:55;18.63;;;13.80;;
14603;SDS011;7388;51.078;13.740;2023-05-07T04:13:21;17.73;;;12.43;;
14603;SDS011;7388;51.078;13.740;2023-05-07T04:15:47;15.77;;;12.67;;
14603;SDS011;7388;51.078;13.740;2023-05-07T04:18:14;18.70;;;12.45;;
14603;SDS011;7388;51.078;13.740;2023-05-07T04:20:40;20.05;;;15.07;;
14603;SDS011;7388;51.078;13.740;2023-05-07T04:23:06;18.40;;;12.53;;
14603;SDS011;7388;51.078;13.740;2023-05-07T04:25:32;15.30;;;10.77;;
14603;SDS011;7388;51.078;13.740;2023-05-07T04:27:58;13.93;;;12.48;;
14603;SDS011;7388;51.078;13.740;2023-05-07T04:30:24;14.13;;;11.53;;
14603;SDS011;7388;51.078;13.740;2023-05-07T04:32:50;17.00;;;13.23;;
14603;SDS011;7388;51.078;13.740;2023-05-07T04:35:16;13.43;;;11.10;;
14603;SDS011;7388;51.078;13.740;2023-05-07T04:37:42;16.10;;;12.20;;
14603;SDS011;7388;51.078;13.740;2023-05-07T04:40:08;17.00;;;11.40;;
14603;SDS011;7388;51.078;13.740;2023-05-07T04:42:34;20.80;;;12.80;;
14603;SDS011;7388;51.078;13.740;2023-05-07T04:45:01;16.00;;;12.07;;
14603;SDS011;7388;51.078;13.740;2023-05-07T04:47:27;15.50;;;12.02;;
14603;SDS011;7388;51.078;13.740;2023-05-07T04:49:52;15.83;;;11.23;;
14603;SDS011;7388;51.078;13.740;2023-05-07T04:52:18;12.57;;;10.53;;
14603;SDS011;7388;51.078;13.740;2023-05-07T04:54:44;13.40;;;10.87;;
14603;SDS011;7388;51.078;13.740;2023-05-07T04:57:10;19.37;;;14.30;;
14603;SDS011;7388;51.078;13.740;2023-05-07T04:59:35;13.97;;;12.17;;
14603;SDS011;7388;51.078;13.740;2023-05-07T05:02:01;19.07;;;13.60;;
14603;SDS011;7388;51.078;13.740;2023-05-07T05:04:29;16.00;;;12.60;;
14603;SDS011;7388;51.078;13.740;2023-05-07T05:06:55;16.67;;;12.95;;
14603;SDS011;7388;51.078;13.740;2023-05-07T05:09:21;16.63;;;14.55;;
14603;SDS011;7388;51.078;13.740;2023-05-07T05:11:47;16.17;;;12.63;;
14603;SDS011;7388;51.078;13.740;2023-05-07T05:14:13;15.53;;;11.93;;
14603;SDS011;7388;51.078;13.740;2023-05-07T05:16:38;16.23;;;10.60;;
14603;SDS011;7388;51.078;13.740;2023-05-07T05:19:04;15.10;;;12.17;;
14603;SDS011;7388;51.078;13.740;2023-05-07T05:21:30;13.63;;;11.60;;
14603;SDS011;7388;51.078;13.740;2023-05-07T05:23:56;13.77;;;10.60;;
14603;SDS011;7388;51.078;13.740;2023-05-07T05:26:23;13.05;;;10.15;;
14603;SDS011;7388;51.078;13.740;2023-05-07T05:28:48;11.20;;;10.00;;
14603;SDS011;7388;51.078;13.740;2023-05-07T05:31:15;16.43;;;12.43;;
14603;SDS011;7388;51.078;13.740;2023-05-07T05:33:41;12.50;;;9.93;;
14603;SDS011;7388;51.078;13.740;2023-05-07T05:36:09;14.43;;;10.97;;
14603;SDS011;7388;51.078;13.740;2023-05-07T05:38:35;13.77;;;9.63;;
14603;SDS011;7388;51.078;13.740;2023-05-07T05:41:01;12.00;;;9.80;;
14603;SDS011;7388;51.078;13.740;2023-05-07T05:43:27;12.53;;;10.87;;
14603;SDS011;7388;51.078;13.740;2023-05-07T05:45:53;19.20;;;13.00;;
14603;SDS011;7388;51.078;13.740;2023-05-07T05:48:20;14.43;;;11.38;;
14603;SDS011;7388;51.078;13.740;2023-05-07T05:50:45;16.30;;;11.83;;
14603;SDS011;7388;51.078;13.740;2023-05-07T05:53:11;13.23;;;11.63;;
14603;SDS011;7388;51.078;13.740;2023-05-07T05:55:37;14.77;;;10.90;;
14603;SDS011;7388;51.078;13.740;2023-05-07T05:58:03;12.43;;;10.60;;
14603;SDS011;7388;51.078;13.740;2023-05-07T06:00:29;11.27;;;9.80;;
14603;SDS011;7388;51.078;13.740;2023-05-07T06:02:55;14.77;;;9.07;;
14603;SDS011;7388;51.078;13.740;2023-05-07T06:05:20;10.63;;;8.97;;
14603;SDS011;7388;51.078;13.740;2023-05-07T06:07:46;10.40;;;8.17;;
14603;SDS011;7388;51.078;13.740;2023-05-07T06:10:12;12.20;;;8.77;;
14603;SDS011;7388;51.078;13.740;2023-05-07T06:12:37;21.13;;;9.57;;
14603;SDS011;7388;51.078;13.740;2023-05-07T06:15:04;10.90;;;8.13;;
14603;SDS011;7388;51.078;13.740;2023-05-07T06:17:31;9.48;;;7.25;;
14603;SDS011;7388;51.078;13.740;2023-05-07T06:19:56;13.13;;;9.63;;
14603;SDS011;7388;51.078;13.740;2023-05-07T06:22:22;11.10;;;9.17;;
14603;SDS011;7388;51.078;13.740;2023-05-07T06:24:48;10.17;;;8.50;;
14603;SDS011;7388;51.078;13.740;2023-05-07T06:27:14;12.10;;;7.20;;
14603;SDS011;7388;51.078;13.740;2023-05-07T06:29:39;12.90;;;9.23;;
14603;SDS011;7388;51.078;13.740;2023-05-07T06:32:06;12.10;;;8.57;;
14603;SDS011;7388;51.078;13.740;2023-05-07T06:34:35;11.55;;;9.00;;
14603;SDS011;7388;51.078;13.740;2023-05-07T06:37:01;14.07;;;9.20;;
14603;SDS011;7388;51.078;13.740;2023-05-07T06:39:27;8.90;;;7.30;;
14603;SDS011;7388;51.078;13.740;2023-05-07T06:41:53;8.37;;;7.57;;
14603;SDS011;7388;51.078;13.740;2023-05-07T06:44:18;17.50;;;7.30;;
14603;SDS011;7388;51.078;13.740;2023-05-07T06:46:44;8.90;;;7.03;;
14603;SDS011;7388;51.078;13.740;2023-05-07T06:49:10;8.33;;;7.00;;
14603;SDS011;7388;51.078;13.740;2023-05-07T06:51:37;8.15;;;6.78;;
14603;SDS011;7388;51.078;13.740;2023-05-07T06:54:03;9.13;;;7.70;;
14603;SDS011;7388;51.078;13.740;2023-05-07T06:56:29;8.50;;;7.60;;
14603;SDS011;7388;51.078;13.740;2023-05-07T06:58:56;12.65;;;9.18;;
14603;SDS011;7388;51.078;13.740;2023-05-07T07:01:21;11.93;;;9.30;;
14603;SDS011;7388;51.078;13.740;2023-05-07T07:03:47;11.13;;;9.23;;
14603;SDS011;7388;51.078;13.740;2023-05-07T07:06:13;9.60;;;7.73;;
14603;SDS011;7388;51.078;13.740;2023-05-07T07:08:39;9.03;;;8.13;;
14603;SDS011;7388;51.078;13.740;2023-05-07T07:11:05;8.13;;;7.17;;
14603;SDS011;7388;51.078;13.740;2023-05-07T07:13:31;8.60;;;7.63;;
14603;SDS011;7388;51.078;13.740;2023-05-07T07:15:56;9.60;;;8.17;;
14603;SDS011;7388;51.078;13.740;2023-05-07T07:18:22;7.60;;;6.77;;
14603;SDS011;7388;51.078;13.740;2023-05-07T07:20:48;7.70;;;6.40;;
14603;SDS011;7388;51.078;13.740;2023-05-07T07:23:14;7.00;;;5.20;;
14603;SDS011;7388;51.078;13.740;2023-05-07T07:25:39;7.43;;;6.20;;
14603;SDS011;7388;51.078;13.740;2023-05-07T07:28:06;5.88;;;5.28;;
14603;SDS011;7388;51.078;13.740;2023-05-07T07:30:32;8.32;;;6.90;;
14603;SDS011;7388;51.078;13.740;2023-05-07T07:32:57;10.90;;;8.20;;
14603;SDS011;7388;51.078;13.740;2023-05-07T07:35:31;5.47;;;4.90;;
14603;SDS011;7388;51.078;13.740;2023-05-07T07:37:57;7.03;;;4.95;;
14603;SDS011;7388;51.078;13.740;2023-05-07T07:40:23;6.20;;;5.60;;
14603;SDS011;7388;51.078;13.740;2023-05-07T07:42:50;9.45;;;5.05;;
14603;SDS011;7388;51.078;13.740;2023-05-07T07:45:16;6.90;;;5.43;;
14603;SDS011;7388;51.078;13.740;2023-05-07T07:47:42;6.33;;;5.73;;
14603;SDS011;7388;51.078;13.740;2023-05-07T07:50:08;6.67;;;5.93;;
14603;SDS011;7388;51.078;13.740;2023-05-07T07:52:34;6.68;;;5.80;;
14603;SDS011;7388;51.078;13.740;2023-05-07T07:55:00;6.50;;;5.90;;
14603;SDS011;7388;51.078;13.740;2023-05-07T07:57:26;6.35;;;5.15;;
14603;SDS011;7388;51.078;13.740;2023-05-07T07:59:52;6.17;;;5.57;;
14603;SDS011;7388;51.078;13.740;2023-05-07T08:02:17;5.23;;;4.73;;
14603;SDS011;7388;51.078;13.740;2023-05-07T08:04:43;6.23;;;5.63;;
14603;SDS011;7388;51.078;13.740;2023-05-07T08:07:09;4.67;;;4.27;;
14603;SDS011;7388;51.078;13.740;2023-05-07T08:09:36;4.97;;;4.40;;
14603;SDS011;7388;51.078;13.740;2023-05-07T08:12:03;4.88;;;4.38;;
14603;SDS011;7388;51.078;13.740;2023-05-07T08:14:29;6.55;;;5.22;;
14603;SDS011;7388;51.078;13.740;2023-05-07T08:16:55;4.93;;;4.43;;
14603;SDS011;7388;51.078;13.740;2023-05-07T08:19:21;4.70;;;4.30;;
14603;SDS011;7388;51.078;13.740;2023-05-07T08:21:47;5.57;;;4.10;;
14603;SDS011;7388;51.078;13.740;2023-05-07T08:24:13;4.47;;;4.07;;
14603;SDS011;7388;51.078;13.740;2023-05-07T08:26:40;4.70;;;3.53;;
14603;SDS011;7388;51.078;13.740;2023-05-07T08:29:06;4.63;;;4.22;;
14603;SDS011;7388;51.078;13.740;2023-05-07T08:31:32;7.55;;;4.25;;
14603;SDS011;7388;51.078;13.740;2023-05-07T08:33:58;5.50;;;4.27;;
14603;SDS011;7388;51.078;13.740;2023-05-07T08:36:24;5.53;;;5.00;;
14603;SDS011;7388;51.078;13.740;2023-05-07T08:38:50;4.97;;;4.35;;
14603;SDS011;7388;51.078;13.740;2023-05-07T08:41:17;5.10;;;4.65;;
14603;SDS011;7388;51.078;13.740;2023-05-07T08:43:45;5.30;;;4.72;;
14603;SDS011;7388;51.078;13.740;2023-05-07T08:46:20;6.07;;;5.00;;
14603;SDS011;7388;51.078;13.740;2023-05-07T08:48:50;7.43;;;5.95;;
14603;SDS011;7388;51.078;13.740;2023-05-07T08:51:20;8.48;;;7.50;;
14603;SDS011;7388;51.078;13.740;2023-05-07T08:53:47;7.78;;;6.40;;
14603;SDS011;7388;51.078;13.740;2023-05-07T08:56:13;9.65;;;6.78;;
14603;SDS011;7388;51.078;13.740;2023-05-07T08:58:43;7.97;;;7.00;;
14603;SDS011;7388;51.078;13.740;2023-05-07T09:01:10;7.32;;;6.63;;
14603;SDS011;7388;51.078;13.740;2023-05-07T09:03:39;8.52;;;7.68;;
14603;SDS011;7388;51.078;13.740;2023-05-07T09:06:05;7.20;;;6.50;;
14603;SDS011;7388;51.078;13.740;2023-05-07T09:08:34;10.82;;;8.35;;
14603;SDS011;7388;51.078;13.740;2023-05-07T09:11:01;7.57;;;6.35;;
14603;SDS011;7388;51.078;13.740;2023-05-07T09:13:27;6.57;;;5.97;;
14603;SDS011;7388;51.078;13.740;2023-05-07T09:15:54;17.17;;;15.75;;
14603;SDS011;7388;51.078;13.740;2023-05-07T09:18:20;7.00;;;6.30;;
14603;SDS011;7388;51.078;13.740;2023-05-07T09:20:45;7.43;;;6.63;;
14603;SDS011;7388;51.078;13.740;2023-05-07T09:23:11;8.00;;;5.90;;
14603;SDS011;7388;51.078;13.740;2023-05-07T09:25:37;7.00;;;6.23;;
14603;SDS011;7388;51.078;13.740;2023-05-07T09:28:03;6.57;;;5.63;;
14603;SDS011;7388;51.078;13.740;2023-05-07T09:30:32;8.25;;;6.45;;
14603;SDS011;7388;51.078;13.740;2023-05-07T09:32:59;5.70;;;5.20;;
14603;SDS011;7388;51.078;13.740;2023-05-07T09:35:26;8.52;;;6.68;;
14603;SDS011;7388;51.078;13.740;2023-05-07T09:37:57;6.85;;;6.15;;
14603;SDS011;7388;51.078;13.740;2023-05-07T09:40:24;6.80;;;6.10;;
14603;SDS011;7388;51.078;13.740;2023-05-07T09:42:54;8.02;;;7.22;;
14603;SDS011;7388;51.078;13.740;2023-05-07T09:45:27;7.68;;;6.78;;
14603;SDS011;7388;51.078;13.740;2023-05-07T09:47:54;8.48;;;6.70;;
14603;SDS011;7388;51.078;13.740;2023-05-07T09:50:24;7.15;;;6.45;;
14603;SDS011;7388;51.078;13.740;2023-05-07T09:52:52;8.27;;;6.88;;
14603;SDS011;7388;51.078;13.740;2023-05-07T09:55:20;11.25;;;7.75;;
14603;SDS011;7388;51.078;13.740;2023-05-07T09:57:48;12.23;;;8.65;;
14603;SDS011;7388;51.078;13.740;2023-05-07T10:00:17;8.70;;;7.32;;
14603;SDS011;7388;51.078;13.740;2023-05-07T10:02:45;7.45;;;6.70;;
14603;SDS011;7388;51.078;13.740;2023-05-07T10:05:20;7.20;;;6.47;;
14603;SDS011;7388;51.078;13.740;2023-05-07T10:07:47;9.35;;;8.38;;
14603;SDS011;7388;51.078;13.740;2023-05-07T10:10:14;11.18;;;8.27;;
14603;SDS011;7388;51.078;13.740;2023-05-07T10:12:41;9.60;;;8.70;;
14603;SDS011;7388;51.078;13.740;2023-05-07T10:15:10;8.85;;;7.95;;
14603;SDS011;7388;51.078;13.740;2023-05-07T10:17:37;9.30;;;8.40;;
14603;SDS011;7388;51.078;13.740;2023-05-07T10:20:04;9.77;;;8.77;;
14603;SDS011;7388;51.078;13.740;2023-05-07T10:22:44;8.93;;;7.38;;
14603;SDS011;7388;51.078;13.740;2023-05-07T10:27:46;7.13;;;6.43;;
14603;SDS011;7388;51.078;13.740;2023-05-07T10:33:05;8.50;;;7.70;;
14603;SDS011;7388;51.078;13.740;2023-05-07T10:35:43;8.77;;;7.38;;
14603;SDS011;7388;51.078;13.740;2023-05-07T10:38:11;9.35;;;8.45;;
14603;SDS011;7388;51.078;13.740;2023-05-07T10:40:38;7.75;;;6.95;;
14603;SDS011;7388;51.078;13.740;2023-05-07T10:43:05;9.48;;;8.38;;
14603;SDS011;7388;51.078;13.740;2023-05-07T10:45:31;9.07;;;7.57;;
14603;SDS011;7388;51.078;13.740;2023-05-07T10:48:13;6.50;;;5.90;;
14603;SDS011;7388;51.078;13.740;2023-05-07T10:50:40;8.23;;;7.38;;
14603;SDS011;7388;51.078;13.740;2023-05-07T10:55:42;9.68;;;7.70;;
14603;SDS011;7388;51.078;13.740;2023-05-07T11:00:55;7.60;;;6.90;;
14603;SDS011;7388;51.078;13.740;2023-05-07T11:03:26;9.15;;;8.35;;
14603;SDS011;7388;51.078;13.740;2023-05-07T11:06:08;10.68;;;9.68;;
14603;SDS011;7388;51.078;13.740;2023-05-07T11:08:54;9.27;;;8.38;;
14603;SDS011;7388;51.078;13.740;2023-05-07T11:14:13;11.27;;;10.05;;
14603;SDS011;7388;51.078;13.740;2023-05-07T11:16:40;7.80;;;7.10;;
14603;SDS011;7388;51.078;13.740;2023-05-07T11:19:08;19.00;;;17.13;;
14603;SDS011;7388;51.078;13.740;2023-05-07T11:21:37;7.70;;;6.70;;
14603;SDS011;7388;51.078;13.740;2023-05-07T11:24:05;8.57;;;7.78;;
14603;SDS011;7388;51.078;13.740;2023-05-07T11:29:12;13.20;;;11.90;;
14603;SDS011;7388;51.078;13.740;2023-05-07T11:31:48;33.15;;;24.23;;
14603;SDS011;7388;51.078;13.740;2023-05-07T11:34:19;7.45;;;6.75;;
14603;SDS011;7388;51.078;13.740;2023-05-07T11:36:50;9.32;;;8.05;;
14603;SDS011;7388;51.078;13.740;2023-05-07T11:42:00;10.82;;;8.25;;
14603;SDS011;7388;51.078;13.740;2023-05-07T11:44:43;25.88;;;23.08;;
14603;SDS011;7388;51.078;13.740;2023-05-07T11:47:11;8.18;;;7.25;;
14603;SDS011;7388;51.078;13.740;2023-05-07T11:49:41;13.43;;;12.05;;
14603;SDS011;7388;51.078;13.740;2023-05-07T11:52:07;9.77;;;8.87;;
14603;SDS011;7388;51.078;13.740;2023-05-07T11:54:36;7.63;;;6.77;;
14603;SDS011;7388;51.078;13.740;2023-05-07T11:57:02;8.32;;;7.50;;
14603;SDS011;7388;51.078;13.740;2023-05-07T11:59:28;18.53;;;16.63;;
14603;SDS011;7388;51.078;13.740;2023-05-07T12:01:57;11.50;;;10.33;;
14603;SDS011;7388;51.078;13.740;2023-05-07T12:04:24;9.00;;;6.05;;
14603;SDS011;7388;51.078;13.740;2023-05-07T12:06:53;16.23;;;14.67;;
14603;SDS011;7388;51.078;13.740;2023-05-07T12:09:20;11.57;;;10.52;;
14603;SDS011;7388;51.078;13.740;2023-05-07T12:11:46;53.13;;;40.67;;
14603;SDS011;7388;51.078;13.740;2023-05-07T12:14:12;20.58;;;18.60;;
14603;SDS011;7388;51.078;13.740;2023-05-07T12:16:41;14.52;;;13.02;;
14603;SDS011;7388;51.078;13.740;2023-05-07T12:19:08;12.25;;;10.18;;
14603;SDS011;7388;51.078;13.740;2023-05-07T12:21:37;9.55;;;8.63;;
14603;SDS011;7388;51.078;13.740;2023-05-07T12:24:04;9.10;;;7.38;;
14603;SDS011;7388;51.078;13.740;2023-05-07T12:26:30;10.93;;;9.82;;
14603;SDS011;7388;51.078;13.740;2023-05-07T12:28:58;12.33;;;11.13;;
14603;SDS011;7388;51.078;13.740;2023-05-07T12:31:27;12.13;;;10.82;;
14603;SDS011;7388;51.078;13.740;2023-05-07T12:33:53;7.30;;;6.60;;
14603;SDS011;7388;51.078;13.740;2023-05-07T12:36:18;10.53;;;8.80;;
14603;SDS011;7388;51.078;13.740;2023-05-07T12:38:46;8.68;;;7.95;;
14603;SDS011;7388;51.078;13.740;2023-05-07T12:41:15;9.65;;;8.35;;
14603;SDS011;7388;51.078;13.740;2023-05-07T12:43:43;7.80;;;6.75;;
14603;SDS011;7388;51.078;13.740;2023-05-07T12:46:10;8.07;;;7.30;;
14603;SDS011;7388;51.078;13.740;2023-05-07T12:48:43;12.40;;;11.02;;
14603;SDS011;7388;51.078;13.740;2023-05-07T12:51:10;9.00;;;8.13;;
14603;SDS011;7388;51.078;13.740;2023-05-07T12:53:41;9.68;;;8.88;;
14603;SDS011;7388;51.078;13.740;2023-05-07T12:56:07;8.88;;;7.50;;
14603;SDS011;7388;51.078;13.740;2023-05-07T12:58:34;9.45;;;8.63;;
14603;SDS011;7388;51.078;13.740;2023-05-07T13:01:01;9.50;;;8.40;;
14603;SDS011;7388;51.078;13.740;2023-05-07T13:03:31;7.82;;;7.22;;
14603;SDS011;7388;51.078;13.740;2023-05-07T13:06:07;8.65;;;6.43;;
14603;SDS011;7388;51.078;13.740;2023-05-07T13:08:40;6.55;;;6.00;;
14603;SDS011;7388;51.078;13.740;2023-05-07T13:11:10;8.02;;;7.22;;
14603;SDS011;7388;51.078;13.740;2023-05-07T13:13:37;5.97;;;5.45;;
14603;SDS011;7388;51.078;13.740;2023-05-07T13:16:05;7.15;;;6.13;;
14603;SDS011;7388;51.078;13.740;2023-05-07T13:18:33;7.05;;;6.03;;
14603;SDS011;7388;51.078;13.740;2023-05-07T13:20:59;7.03;;;6.43;;
14603;SDS011;7388;51.078;13.740;2023-05-07T13:23:26;9.07;;;8.18;;
14603;SDS011;7388;51.078;13.740;2023-05-07T13:25:52;8.32;;;7.38;;
14603;SDS011;7388;51.078;13.740;2023-05-07T13:28:19;10.18;;;7.70;;
14603;SDS011;7388;51.078;13.740;2023-05-07T13:30:45;11.13;;;10.13;;
14603;SDS011;7388;51.078;13.740;2023-05-07T13:33:11;8.85;;;8.05;;
14603;SDS011;7388;51.078;13.740;2023-05-07T13:35:37;6.55;;;5.93;;
14603;SDS011;7388;51.078;13.740;2023-05-07T13:38:03;7.23;;;6.63;;
14603;SDS011;7388;51.078;13.740;2023-05-07T13:40:29;7.87;;;7.07;;
14603;SDS011;7388;51.078;13.740;2023-05-07T13:42:56;19.90;;;7.90;;
14603;SDS011;7388;51.078;13.740;2023-05-07T13:45:23;8.93;;;7.65;;
14603;SDS011;7388;51.078;13.740;2023-05-07T13:47:50;8.30;;;7.50;;
14603;SDS011;7388;51.078;13.740;2023-05-07T13:50:17;6.55;;;5.90;;
14603;SDS011;7388;51.078;13.740;2023-05-07T13:52:43;11.38;;;7.97;;
14603;SDS011;7388;51.078;13.740;2023-05-07T13:55:19;10.07;;;9.18;;
14603;SDS011;7388;51.078;13.740;2023-05-07T13:57:46;6.03;;;5.53;;
14603;SDS011;7388;51.078;13.740;2023-05-07T14:00:12;4.82;;;4.43;;
14603;SDS011;7388;51.078;13.740;2023-05-07T14:02:39;5.20;;;4.70;;
14603;SDS011;7388;51.078;13.740;2023-05-07T14:05:05;6.72;;;6.10;;
14603;SDS011;7388;51.078;13.740;2023-05-07T14:07:32;16.23;;;13.50;;
14603;SDS011;7388;51.078;13.740;2023-05-07T14:09:57;8.00;;;7.20;;
14603;SDS011;7388;51.078;13.740;2023-05-07T14:12:23;5.87;;;5.27;;
14603;SDS011;7388;51.078;13.740;2023-05-07T14:14:49;11.52;;;7.05;;
14603;SDS011;7388;51.078;13.740;2023-05-07T14:17:16;11.87;;;10.23;;
14603;SDS011;7388;51.078;13.740;2023-05-07T14:19:42;9.07;;;8.20;;
14603;SDS011;7388;51.078;13.740;2023-05-07T14:22:09;7.68;;;6.97;;
14603;SDS011;7388;51.078;13.740;2023-05-07T14:24:34;9.70;;;8.37;;
14603;SDS011;7388;51.078;13.740;2023-05-07T14:27:00;11.80;;;9.67;;
14603;SDS011;7388;51.078;13.740;2023-05-07T14:29:26;10.27;;;8.07;;
14603;SDS011;7388;51.078;13.740;2023-05-07T14:31:51;63.77;;;33.00;;
14603;SDS011;7388;51.078;13.740;2023-05-07T14:34:17;9.10;;;8.20;;
14603;SDS011;7388;51.078;13.740;2023-05-07T14:36:43;4.33;;;3.93;;
14603;SDS011;7388;51.078;13.740;2023-05-07T14:39:09;5.83;;;5.33;;
14603;SDS011;7388;51.078;13.740;2023-05-07T14:41:35;6.13;;;5.57;;
14603;SDS011;7388;51.078;13.740;2023-05-07T14:44:00;8.53;;;6.30;;
14603;SDS011;7388;51.078;13.740;2023-05-07T14:46:28;7.82;;;7.15;;
14603;SDS011;7388;51.078;13.740;2023-05-07T14:48:56;6.63;;;6.03;;
14603;SDS011;7388;51.078;13.740;2023-05-07T14:51:22;7.80;;;7.10;;